Time;durP1;ratioP1;P1;durP2;ratioP2;P2;SDS_P1;SDS_P2;PMS_P1;PMS_P2;Temp;Humidity;BMP_temperature;BMP_pressure;BME280_temperature;BME280_humidity;BME280_pressure;Samples;Min_cycle;Max_cycle;Signal;HPM_P1;HPM_P2
2021/05/02 00:00:27;;;;;;;7.40;1.75;;;38.30;6.30;;;;;;5095240;28;20077;-60
2021/05/02 00:02:54;;;;;;;14.20;1.95;;;38.40;6.10;;;;;;5092472;28;20080;-59
2021/05/02 00:05:23;;;;;;;3.60;1.45;;;38.20;6.30;;;;;;5092254;28;20156;-58
2021/05/02 00:07:51;;;;;;;9.02;1.83;;;38.20;6.70;;;;;;5096203;28;20077;-59
2021/05/02 00:10:19;;;;;;;7.25;1.45;;;38.40;6.60;;;;;;5095433;28;20412;-57
2021/05/02 00:12:47;;;;;;;16.85;2.50;;;38.60;6.50;;;;;;5093527;28;20081;-59
2021/05/02 00:15:17;;;;;;;8.18;1.50;;;38.70;6.70;;;;;;5093258;28;20214;-59
2021/05/02 00:17:45;;;;;;;8.55;1.48;;;38.70;6.40;;;;;;5096634;28;20110;-58
2021/05/02 00:20:15;;;;;;;9.00;1.48;;;38.70;6.40;;;;;;5092709;28;20076;-59
2021/05/02 00:22:47;;;;;;;5.55;1.55;;;38.60;6.40;;;;;;5095660;28;20069;-58
2021/05/02 00:25:16;;;;;;;7.65;1.60;;;38.50;6.40;;;;;;5092860;28;20080;-59
2021/05/02 00:27:43;;;;;;;8.38;1.77;;;38.40;6.70;;;;;;5095217;28;20077;-60
2021/05/02 00:30:13;;;;;;;23.63;2.38;;;38.30;7.10;;;;;;5093428;28;20077;-58
2021/05/02 00:32:43;;;;;;;21.88;2.38;;;38.30;6.80;;;;;;5078917;28;20114;-60
2021/05/02 00:35:10;;;;;;;11.57;2.08;;;38.00;7.50;;;;;;5097411;28;20106;-59
2021/05/02 00:37:39;;;;;;;14.48;3.20;;;37.80;7.50;;;;;;5092501;28;20173;-61
2021/05/02 00:40:14;;;;;;;19.20;3.40;;;37.60;7.50;;;;;;5094489;28;20060;-59
2021/05/02 00:42:50;;;;;;;18.50;2.88;;;37.20;7.10;;;;;;5095134;28;20074;-59
2021/05/02 00:45:27;;;;;;;10.45;3.55;;;37.00;7.20;;;;;;5091388;28;20080;-59
2021/05/02 00:48:03;;;;;;;12.63;3.05;;;36.80;7.30;;;;;;5075324;28;20120;-62
2021/05/02 00:50:38;;;;;;;14.48;2.30;;;36.70;7.60;;;;;;5091689;28;20584;-60
2021/05/02 00:53:13;;;;;;;18.33;2.42;;;36.50;7.70;;;;;;5096140;28;20178;-56
2021/05/02 00:55:51;;;;;;;21.25;2.72;;;36.20;7.70;;;;;;5096707;28;20086;-56
2021/05/02 00:58:37;;;;;;;13.05;2.42;;;36.00;8.00;;;;;;5092987;28;20525;-56
2021/05/02 01:01:05;;;;;;;19.40;1.98;;;35.60;8.40;;;;;;5095758;28;20448;-67
2021/05/02 01:03:33;;;;;;;19.05;2.83;;;35.30;8.10;;;;;;5100961;28;20088;-58
2021/05/02 01:06:06;;;;;;;14.73;2.70;;;35.10;8.40;;;;;;5091453;28;20085;-55
2021/05/02 01:08:36;;;;;;;19.55;2.63;;;35.00;8.50;;;;;;5096328;28;20486;-62
2021/05/02 01:11:05;;;;;;;16.95;2.92;;;34.80;8.80;;;;;;5093176;28;20073;-58
2021/05/02 01:13:36;;;;;;;16.35;3.05;;;34.60;8.80;;;;;;5096612;28;20080;-59
2021/05/02 01:16:05;;;;;;;13.57;3.53;;;34.50;8.70;;;;;;5090942;28;20081;-58
2021/05/02 01:18:33;;;;;;;14.95;4.60;;;34.30;8.50;;;;;;5093181;28;20164;-60
2021/05/02 01:21:00;;;;;;;20.55;4.05;;;34.30;8.40;;;;;;5096359;28;20155;-60
2021/05/02 01:23:28;;;;;;;24.55;3.08;;;34.10;8.30;;;;;;5094649;28;20084;-58
2021/05/02 01:25:57;;;;;;;29.50;4.03;;;33.90;8.20;;;;;;5093108;28;20517;-57
2021/05/02 01:28:25;;;;;;;15.90;3.20;;;33.70;8.20;;;;;;5087567;28;20088;-60
2021/05/02 01:30:53;;;;;;;22.67;3.03;;;33.70;8.20;;;;;;5092346;28;20198;-62
2021/05/02 01:33:20;;;;;;;22.00;3.50;;;33.60;8.10;;;;;;5088629;28;20184;-62
2021/05/02 01:35:47;;;;;;;19.65;3.03;;;33.60;8.10;;;;;;5089071;28;20092;-60
2021/05/02 01:38:14;;;;;;;15.20;3.00;;;33.50;8.10;;;;;;5091986;28;20203;-59
2021/05/02 01:40:42;;;;;;;20.45;2.75;;;33.40;8.10;;;;;;5086187;28;20147;-61
2021/05/02 01:43:08;;;;;;;15.20;2.40;;;33.30;8.00;;;;;;5095983;28;20076;-61
2021/05/02 01:45:35;;;;;;;15.55;2.53;;;33.30;7.90;;;;;;5096262;28;20076;-59
2021/05/02 01:48:07;;;;;;;21.05;2.80;;;33.10;7.90;;;;;;5092954;28;20117;-57
2021/05/02 01:50:46;;;;;;;11.15;2.90;;;33.00;8.00;;;;;;5092565;28;20111;-52
2021/05/02 01:53:14;;;;;;;16.35;2.70;;;33.00;8.20;;;;;;5092663;28;20480;-59
2021/05/02 01:55:42;;;;;;;11.40;2.40;;;32.80;8.30;;;;;;5073623;28;20094;-61
2021/05/02 01:58:11;;;;;;;11.55;2.90;;;32.70;8.40;;;;;;5094290;28;20095;-57
2021/05/02 02:00:40;;;;;;;19.92;2.90;;;32.70;8.40;;;;;;5092688;28;20079;-60
2021/05/02 02:03:08;;;;;;;19.05;2.95;;;32.70;8.20;;;;;;5093627;28;20155;-59
2021/05/02 02:05:37;;;;;;;18.35;3.63;;;32.70;8.10;;;;;;5095426;28;20151;-58
2021/05/02 02:08:07;;;;;;;23.60;3.08;;;32.70;8.10;;;;;;5090344;28;20068;-57
2021/05/02 02:10:34;;;;;;;21.58;3.55;;;32.60;7.80;;;;;;5091050;28;20083;-55
2021/05/02 02:13:02;;;;;;;22.77;2.88;;;32.60;8.10;;;;;;5094615;28;20097;-61
2021/05/02 02:15:29;;;;;;;17.00;2.60;;;32.60;8.00;;;;;;5096479;28;20434;-60
2021/05/02 02:17:56;;;;;;;19.95;3.20;;;32.50;7.60;;;;;;5092784;28;20594;-58
2021/05/02 02:20:25;;;;;;;17.98;2.53;;;32.50;7.70;;;;;;5095689;28;20431;-59
2021/05/02 02:22:56;;;;;;;17.88;3.13;;;32.40;7.70;;;;;;5097660;28;20072;-60
2021/05/02 02:25:28;;;;;;;11.23;2.20;;;32.30;7.50;;;;;;5090650;28;20073;-59
2021/05/02 02:28:01;;;;;;;8.85;2.20;;;32.20;7.50;;;;;;5093023;28;20110;-59
2021/05/02 02:30:28;;;;;;;14.20;1.75;;;32.10;7.50;;;;;;5097591;28;20087;-58
2021/05/02 02:32:59;;;;;;;40.22;4.47;;;32.10;7.50;;;;;;5094416;28;20080;-59
2021/05/02 02:35:27;;;;;;;7.85;2.42;;;32.10;7.70;;;;;;5090983;28;20936;-60
2021/05/02 02:37:55;;;;;;;12.00;2.00;;;32.00;7.30;;;;;;5094839;28;20076;-55
2021/05/02 02:40:23;;;;;;;7.38;2.03;;;31.90;7.20;;;;;;5093467;28;20484;-59
2021/05/02 02:42:51;;;;;;;15.18;2.85;;;31.80;7.10;;;;;;5095521;28;20488;-57
2021/05/02 02:45:19;;;;;;;17.65;2.33;;;31.80;7.30;;;;;;5091267;28;20085;-60
2021/05/02 02:47:53;;;;;;;16.35;2.55;;;31.60;7.30;;;;;;5093724;28;20108;-57
2021/05/02 02:50:21;;;;;;;14.50;2.70;;;31.60;7.40;;;;;;5093601;28;20421;-56
2021/05/02 02:52:55;;;;;;;10.27;2.30;;;31.50;7.60;;;;;;5092494;28;20076;-58
2021/05/02 02:55:24;;;;;;;14.63;2.15;;;31.40;7.60;;;;;;5084857;28;20101;-57
2021/05/02 02:57:53;;;;;;;6.57;1.83;;;31.40;7.80;;;;;;5089397;28;20076;-57
2021/05/02 03:00:29;;;;;;;15.43;2.90;;;31.40;8.00;;;;;;5092545;28;20081;-58
2021/05/02 03:03:09;;;;;;;16.38;2.47;;;31.20;8.60;;;;;;5091394;28;20125;-58
2021/05/02 03:05:37;;;;;;;15.43;1.92;;;31.00;8.90;;;;;;5094138;28;20072;-56
2021/05/02 03:08:07;;;;;;;20.40;1.85;;;30.70;8.50;;;;;;5093622;28;20077;-60
2021/05/02 03:10:34;;;;;;;8.50;1.63;;;30.60;8.40;;;;;;5092069;28;20076;-57
2021/05/02 03:13:01;;;;;;;12.55;2.13;;;30.50;8.10;;;;;;5090882;28;20197;-58
2021/05/02 03:15:29;;;;;;;15.57;2.38;;;30.50;8.20;;;;;;5097163;28;20433;-54
2021/05/02 03:18:06;;;;;;;15.60;2.03;;;30.40;7.80;;;;;;5094201;28;20080;-58
2021/05/02 03:20:37;;;;;;;14.02;2.38;;;30.40;7.80;;;;;;5095078;28;20108;-56
2021/05/02 03:23:08;;;;;;;7.88;2.05;;;30.40;7.80;;;;;;5097108;28;20401;-56
2021/05/02 03:25:40;;;;;;;16.10;2.35;;;30.40;7.80;;;;;;5098701;28;20505;-55
2021/05/02 03:28:07;;;;;;;15.80;2.00;;;30.30;7.90;;;;;;5096104;28;20115;-54
2021/05/02 03:30:35;;;;;;;10.10;2.20;;;30.30;8.10;;;;;;5097330;28;20085;-57
2021/05/02 03:33:09;;;;;;;13.63;2.90;;;30.20;8.60;;;;;;5099227;28;20196;-56
2021/05/02 03:35:38;;;;;;;13.98;2.53;;;30.00;8.60;;;;;;5096390;28;20101;-53
2021/05/02 03:38:36;;;;;;;19.13;3.50;;;29.90;8.80;;;;;;5094365;28;20080;-55
2021/05/02 03:41:03;;;;;;;12.85;2.60;;;29.80;9.10;;;;;;5063511;28;20567;-59
2021/05/02 03:43:30;;;;;;;10.15;2.67;;;29.80;9.30;;;;;;5094626;28;20609;-57
2021/05/02 03:45:56;;;;;;;15.18;3.55;;;29.70;9.30;;;;;;5095172;28;20568;-57
2021/05/02 03:48:23;;;;;;;17.50;4.25;;;29.60;9.20;;;;;;5096170;28;20608;-58
2021/05/02 03:50:49;;;;;;;14.02;3.88;;;29.60;9.20;;;;;;5100051;28;20518;-58
2021/05/02 03:53:15;;;;;;;25.80;4.03;;;29.60;9.60;;;;;;5099014;28;20076;-53
2021/05/02 03:55:46;;;;;;;19.48;4.65;;;29.60;9.20;;;;;;5100301;28;20579;-54
2021/05/02 03:58:15;;;;;;;12.63;2.72;;;29.60;9.00;;;;;;5096889;28;20080;-56
2021/05/02 04:00:43;;;;;;;13.40;2.75;;;29.50;8.90;;;;;;5096590;28;20544;-58
2021/05/02 04:03:13;;;;;;;20.55;2.97;;;29.60;8.90;;;;;;5096725;28;20521;-58
2021/05/02 04:05:41;;;;;;;8.98;1.95;;;29.60;8.90;;;;;;5095831;28;20088;-55
2021/05/02 04:08:09;;;;;;;9.75;1.52;;;29.50;8.80;;;;;;5098223;28;20072;-58
2021/05/02 04:10:36;;;;;;;6.95;1.73;;;29.50;9.00;;;;;;5099278;28;20125;-56
2021/05/02 04:13:02;;;;;;;7.72;1.65;;;29.40;8.90;;;;;;5094751;28;20224;-60
2021/05/02 04:15:28;;;;;;;7.70;2.55;;;29.40;8.90;;;;;;5098685;28;20464;-57
2021/05/02 04:17:55;;;;;;;7.45;2.55;;;29.30;8.90;;;;;;5099794;28;20402;-57
2021/05/02 04:20:21;;;;;;;8.13;2.05;;;29.30;8.90;;;;;;5102336;28;20072;-53
2021/05/02 04:22:49;;;;;;;5.30;1.50;;;29.30;8.90;;;;;;5100696;28;20069;-57
2021/05/02 04:25:15;;;;;;;8.02;1.75;;;29.20;8.60;;;;;;5104644;28;20080;-56
2021/05/02 04:27:42;;;;;;;8.98;2.50;;;29.20;8.70;;;;;;5096469;28;20119;-59
2021/05/02 04:30:09;;;;;;;7.05;1.80;;;29.10;8.60;;;;;;5085987;28;20088;-58
2021/05/02 04:32:36;;;;;;;9.20;2.10;;;29.10;8.70;;;;;;5100155;28;20069;-55
2021/05/02 04:35:04;;;;;;;10.32;2.13;;;28.90;8.80;;;;;;5101810;28;20092;-58
2021/05/02 04:37:30;;;;;;;8.57;1.60;;;28.90;9.00;;;;;;5100103;28;20108;-60
2021/05/02 04:39:57;;;;;;;7.82;1.95;;;28.90;7.80;;;;;;5081217;28;20076;-61
2021/05/02 04:42:23;;;;;;;10.18;1.98;;;29.00;7.80;;;;;;5098116;28;20084;-60
2021/05/02 04:44:50;;;;;;;8.25;2.20;;;28.90;7.70;;;;;;5101828;28;20071;-61
2021/05/02 04:47:19;;;;;;;10.75;2.97;;;28.90;7.70;;;;;;5101370;28;20584;-59
2021/05/02 04:49:47;;;;;;;15.13;2.45;;;28.90;7.10;;;;;;5100101;28;20084;-59
2021/05/02 04:52:14;;;;;;;10.57;3.40;;;28.90;5.40;;;;;;5100377;28;20071;-59
2021/05/02 04:54:41;;;;;;;13.20;5.90;;;28.90;6.00;;;;;;5103710;28;20088;-59
2021/05/02 04:57:07;;;;;;;13.65;3.88;;;28.90;6.10;;;;;;5078569;28;20171;-59
2021/05/02 04:59:34;;;;;;;7.15;1.90;;;28.90;5.90;;;;;;5087685;28;20104;-58
2021/05/02 05:02:01;;;;;;;8.85;2.20;;;28.90;5.60;;;;;;5098237;28;20134;-57
2021/05/02 05:04:28;;;;;;;5.75;2.10;;;28.90;6.10;;;;;;5098214;28;20137;-58
2021/05/02 05:06:56;;;;;;;7.60;2.08;;;28.80;6.40;;;;;;5097718;28;20119;-57
2021/05/02 05:09:23;;;;;;;8.00;1.80;;;28.70;6.40;;;;;;5101039;28;20076;-58
2021/05/02 05:11:49;;;;;;;7.90;1.85;;;28.60;6.60;;;;;;5098824;28;20437;-59
2021/05/02 05:14:16;;;;;;;10.25;4.30;;;28.50;6.70;;;;;;5094673;28;20188;-58
2021/05/02 05:16:42;;;;;;;9.60;6.60;;;28.50;6.80;;;;;;5100169;28;20079;-56
2021/05/02 05:19:09;;;;;;;2.20;1.42;;;28.50;6.80;;;;;;5096605;28;20517;-57
2021/05/02 05:21:35;;;;;;;8.50;1.65;;;28.30;6.90;;;;;;5100995;28;20076;-57
2021/05/02 05:24:02;;;;;;;6.88;1.40;;;28.30;7.50;;;;;;5101329;28;20103;-56
2021/05/02 05:26:28;;;;;;;5.72;1.20;;;28.20;7.30;;;;;;5099116;28;20123;-58
2021/05/02 05:28:55;;;;;;;6.93;1.10;;;28.10;7.40;;;;;;5100780;28;20111;-56
2021/05/02 05:31:21;;;;;;;5.88;1.30;;;28.10;7.40;;;;;;5099694;28;20068;-54
2021/05/02 05:33:48;;;;;;;6.72;1.20;;;28.10;7.80;;;;;;5086976;28;20117;-57
2021/05/02 05:36:14;;;;;;;7.32;1.83;;;28.00;7.80;;;;;;5101426;28;20145;-54
2021/05/02 05:38:41;;;;;;;17.25;1.88;;;28.00;8.10;;;;;;5100995;28;20084;-57
2021/05/02 05:41:07;;;;;;;6.13;1.98;;;27.90;8.30;;;;;;5098763;28;20084;-52
2021/05/02 05:43:34;;;;;;;7.63;1.33;;;27.80;8.70;;;;;;5093652;28;20100;-58
2021/05/02 05:46:00;;;;;;;12.10;2.22;;;27.70;7.80;;;;;;5098865;28;20087;-58
2021/05/02 05:48:27;;;;;;;10.27;3.55;;;27.70;7.70;;;;;;5099397;28;20115;-59
2021/05/02 05:50:54;;;;;;;9.45;1.98;;;27.60;7.30;;;;;;5082761;28;20073;-56
2021/05/02 05:53:21;;;;;;;12.32;1.60;;;27.60;8.00;;;;;;5100718;28;20079;-57
2021/05/02 05:55:47;;;;;;;10.60;1.40;;;27.50;8.50;;;;;;5097815;28;20127;-58
2021/05/02 05:58:14;;;;;;;3.80;1.10;;;27.40;8.10;;;;;;5101379;28;21039;-55
2021/05/02 06:00:40;;;;;;;9.32;1.55;;;27.40;7.40;;;;;;5103003;28;20168;-56
2021/05/02 06:03:07;;;;;;;5.68;1.38;;;27.40;8.00;;;;;;5099037;28;20121;-55
2021/05/02 06:05:33;;;;;;;11.82;1.70;;;27.30;7.20;;;;;;5100928;28;20149;-54
2021/05/02 06:08:00;;;;;;;4.10;1.05;;;27.20;8.20;;;;;;5100519;28;20068;-56
2021/05/02 06:10:26;;;;;;;8.40;1.58;;;27.30;5.20;;;;;;5094467;28;20075;-59
2021/05/02 06:12:55;;;;;;;3.95;1.35;;;27.40;5.10;;;;;;5097652;28;20076;-58
2021/05/02 06:15:22;;;;;;;9.27;1.50;;;27.50;5.00;;;;;;5076996;28;20544;-56
2021/05/02 06:17:49;;;;;;;6.55;1.45;;;27.50;4.90;;;;;;5079501;28;20076;-58
2021/05/02 06:20:15;;;;;;;11.02;1.65;;;27.50;5.20;;;;;;5096952;28;20084;-54
2021/05/02 06:22:42;;;;;;;15.85;1.95;;;27.50;5.50;;;;;;5099609;28;20152;-58
2021/05/02 06:25:09;;;;;;;44.70;22.33;;;27.50;5.60;;;;;;5092467;28;20091;-55
2021/05/02 06:27:36;;;;;;;6.40;2.67;;;27.40;5.70;;;;;;5102447;28;20148;-58
2021/05/02 06:30:04;;;;;;;11.32;1.58;;;27.40;5.80;;;;;;5099017;28;20080;-59
2021/05/02 06:32:31;;;;;;;10.50;2.28;;;27.40;5.90;;;;;;5101885;28;20085;-56
2021/05/02 06:34:58;;;;;;;8.80;1.98;;;27.30;5.90;;;;;;5095163;28;20131;-57
2021/05/02 06:37:25;;;;;;;19.33;1.83;;;27.30;6.00;;;;;;5100007;28;20068;-57
2021/05/02 06:39:52;;;;;;;8.93;1.63;;;27.30;5.70;;;;;;5096195;28;20080;-57
2021/05/02 06:42:18;;;;;;;11.77;1.88;;;27.20;6.10;;;;;;5094413;28;20464;-56
2021/05/02 06:44:45;;;;;;;14.52;2.03;;;27.20;6.10;;;;;;5096812;28;20394;-56
2021/05/02 06:47:11;;;;;;;11.38;2.15;;;27.10;5.80;;;;;;5100732;28;20675;-57
2021/05/02 06:49:38;;;;;;;10.35;1.75;;;27.10;5.30;;;;;;5089935;28;20635;-58
2021/05/02 06:52:04;;;;;;;9.77;1.45;;;27.20;5.20;;;;;;5098643;28;20079;-54
2021/05/02 06:54:31;;;;;;;12.45;1.95;;;27.10;5.10;;;;;;5095874;28;20103;-58
2021/05/02 06:56:57;;;;;;;14.73;1.98;;;27.10;4.90;;;;;;5096218;28;20097;-55
2021/05/02 06:59:24;;;;;;;15.73;2.40;;;27.10;4.90;;;;;;5099238;28;20521;-55
2021/05/02 07:01:51;;;;;;;15.65;1.58;;;27.10;4.80;;;;;;5096771;28;20506;-58
2021/05/02 07:04:17;;;;;;;11.50;1.70;;;27.10;4.90;;;;;;5097591;28;20092;-57
2021/05/02 07:06:44;;;;;;;13.60;1.73;;;27.10;4.70;;;;;;5095809;28;20161;-54
2021/05/02 07:09:10;;;;;;;23.77;2.08;;;27.00;4.50;;;;;;5097813;28;20087;-58
2021/05/02 07:11:37;;;;;;;36.08;3.58;;;27.10;3.80;;;;;;5094687;28;20429;-57
2021/05/02 07:14:04;;;;;;;20.85;2.50;;;27.30;2.70;;;;;;5097073;28;20092;-54
2021/05/02 07:16:30;;;;;;;30.90;2.25;;;27.40;2.60;;;;;;5096298;28;20077;-58
2021/05/02 07:18:57;;;;;;;29.42;2.15;;;27.40;3.10;;;;;;5096157;28;20084;-55
2021/05/02 07:21:24;;;;;;;27.58;2.05;;;27.40;4.10;;;;;;5093209;28;20078;-57
2021/05/02 07:23:52;;;;;;;25.27;4.43;;;27.40;4.40;;;;;;5096493;28;20068;-56
2021/05/02 07:26:22;;;;;;;29.67;5.30;;;27.40;2.90;;;;;;5095241;28;20100;-57
2021/05/02 07:28:49;;;;;;;22.67;3.58;;;27.40;2.80;;;;;;5097605;28;20072;-55
2021/05/02 07:31:16;;;;;;;18.60;2.20;;;27.30;3.40;;;;;;5093216;28;20448;-56
2021/05/02 07:33:43;;;;;;;20.88;2.70;;;27.20;3.10;;;;;;5095706;28;20069;-58
2021/05/02 07:36:12;;;;;;;17.88;3.63;;;27.20;3.70;;;;;;5093466;28;20068;-56
2021/05/02 07:38:39;;;;;;;34.28;2.60;;;27.20;2.90;;;;;;5095410;28;20442;-58
2021/05/02 07:41:05;;;;;;;24.58;1.70;;;27.40;1.70;;;;;;5093734;28;20069;-57
2021/05/02 07:43:33;;;;;;;13.48;1.50;;;28.00;1.00;;;;;;5097987;28;20076;-53
2021/05/02 07:46:00;;;;;;;13.05;1.45;;;28.10;1.00;;;;;;5096492;28;20076;-51
2021/05/02 07:48:27;;;;;;;8.77;1.40;;;28.40;1.00;;;;;;5097389;28;20533;-57
2021/05/02 07:50:53;;;;;;;12.05;1.60;;;28.60;1.00;;;;;;5099567;28;20118;-52
2021/05/02 07:53:21;;;;;;;15.73;1.30;;;28.80;1.00;;;;;;5096696;28;20432;-57
2021/05/02 07:55:47;;;;;;;3.78;0.95;;;28.90;1.00;;;;;;5099042;28;20104;-58
2021/05/02 07:58:14;;;;;;;7.63;1.30;;;28.90;1.00;;;;;;5102421;28;20160;-59
2021/05/02 08:00:40;;;;;;;11.57;1.40;;;28.80;1.00;;;;;;5098037;28;20109;-54
2021/05/02 08:03:07;;;;;;;10.95;1.27;;;28.80;1.00;;;;;;5097915;28;20073;-56
2021/05/02 08:05:33;;;;;;;9.85;1.40;;;28.80;1.00;;;;;;5100365;28;20077;-56
2021/05/02 08:08:00;;;;;;;8.60;1.65;;;28.70;1.00;;;;;;5100325;28;20096;-57
2021/05/02 08:10:28;;;;;;;9.40;1.50;;;28.70;1.00;;;;;;5100855;28;20080;-55
2021/05/02 08:12:56;;;;;;;9.13;1.50;;;28.70;1.00;;;;;;5098953;28;20088;-56
2021/05/02 08:15:23;;;;;;;7.72;1.70;;;28.60;1.00;;;;;;5100172;28;20662;-57
2021/05/02 08:17:49;;;;;;;6.38;1.38;;;28.50;1.00;;;;;;5099634;28;20073;-57
2021/05/02 08:20:16;;;;;;;8.50;1.63;;;28.50;1.00;;;;;;5100083;28;20099;-58
2021/05/02 08:22:43;;;;;;;6.32;1.33;;;28.40;1.00;;;;;;5100867;28;20124;-57
2021/05/02 08:25:10;;;;;;;5.32;1.27;;;28.30;1.00;;;;;;5079794;28;20068;-55
2021/05/02 08:27:36;;;;;;;4.22;0.95;;;28.20;1.00;;;;;;5099990;28;20150;-54
2021/05/02 08:30:05;;;;;;;6.43;1.10;;;28.20;1.00;;;;;;5099446;28;20218;-58
2021/05/02 08:32:31;;;;;;;1.25;0.65;;;28.30;1.00;;;;;;5100758;28;20513;-57
2021/05/02 08:34:58;;;;;;;2.13;0.73;;;28.30;1.00;;;;;;5099637;28;20104;-58
2021/05/02 08:37:25;;;;;;;3.50;1.02;;;28.30;1.00;;;;;;5098368;28;20508;-57
2021/05/02 08:39:51;;;;;;;5.05;0.75;;;28.30;1.00;;;;;;5099893;28;20087;-58
2021/05/02 08:42:17;;;;;;;5.00;0.90;;;28.30;1.00;;;;;;5095973;28;20077;-57
2021/05/02 08:44:45;;;;;;;4.78;1.00;;;28.20;1.00;;;;;;5099378;28;20205;-58
2021/05/02 08:47:13;;;;;;;8.07;1.30;;;28.10;1.00;;;;;;5094491;28;20112;-56
2021/05/02 08:49:44;;;;;;;6.07;1.20;;;28.00;1.00;;;;;;5098461;28;20099;-58
2021/05/02 08:52:11;;;;;;;2.97;1.45;;;27.90;1.00;;;;;;5096422;28;20073;-55
2021/05/02 08:54:38;;;;;;;8.50;2.17;;;27.80;1.00;;;;;;5100637;28;20100;-57
2021/05/02 08:57:05;;;;;;;4.50;0.85;;;27.70;1.00;;;;;;5097464;28;20567;-54
2021/05/02 08:59:32;;;;;;;2.80;1.00;;;27.50;1.00;;;;;;5097934;28;20091;-56
2021/05/02 09:01:59;;;;;;;2.85;0.80;;;27.40;1.30;;;;;;5079957;28;20080;-58
2021/05/02 09:04:26;;;;;;;2.50;0.93;;;27.20;1.60;;;;;;5099428;28;20428;-59
2021/05/02 09:06:53;;;;;;;2.85;0.73;;;27.00;7.50;;;;;;5096908;28;20107;-59
2021/05/02 09:09:19;;;;;;;4.50;0.80;;;26.90;9.60;;;;;;5100858;28;20549;-59
2021/05/02 09:11:52;;;;;;;2.50;1.30;;;26.70;2.20;;;;;;5096132;28;20096;-58
2021/05/02 09:14:23;;;;;;;3.92;1.40;;;26.60;2.30;;;;;;5096318;28;20095;-58
2021/05/02 09:16:55;;;;;;;4.97;0.98;;;26.50;2.10;;;;;;5100354;28;20084;-57
2021/05/02 09:19:27;;;;;;;3.92;2.22;;;26.40;1.90;;;;;;5098514;28;20510;-60
2021/05/02 09:21:54;;;;;;;3.13;2.25;;;26.40;1.90;;;;;;5095609;28;20068;-59
2021/05/02 09:24:32;;;;;;;5.82;2.20;;;26.40;19.50;;;;;;5096133;28;20107;-59
2021/05/02 09:27:16;;;;;;;3.50;2.38;;;26.20;1.60;;;;;;5080518;28;20076;-55
2021/05/02 09:29:46;;;;;;;6.05;2.15;;;26.40;16.30;;;;;;5099517;28;20157;-58
2021/05/02 09:32:14;;;;;;;4.22;1.52;;;26.00;19.10;;;;;;5098601;28;20089;-58
2021/05/02 09:34:51;;;;;;;3.55;1.15;;;25.90;2.10;;;;;;5097736;28;20154;-58
2021/05/02 09:37:20;;;;;;;3.88;1.65;;;25.90;2.50;;;;;;5096950;28;20064;-56
2021/05/02 09:39:49;;;;;;;4.68;1.15;;;25.80;2.90;;;;;;5101924;28;20486;-58
2021/05/02 09:42:18;;;;;;;4.55;1.05;;;25.70;2.70;;;;;;5095041;28;20072;-55
2021/05/02 09:44:48;;;;;;;4.40;0.88;;;25.80;3.80;;;;;;5093180;28;20441;-57
2021/05/02 09:47:22;;;;;;;5.45;1.05;;;25.70;3.30;;;;;;5089730;28;20112;-55
2021/05/02 09:50:17;;;;;;;6.72;0.90;;;25.70;4.10;;;;;;5093442;28;20070;-57
2021/05/02 09:52:53;;;;;;;2.78;0.70;;;25.60;8.80;;;;;;5090195;28;20552;-56
2021/05/02 09:55:22;;;;;;;3.67;1.10;;;25.50;16.60;;;;;;5092818;28;20047;-57
2021/05/02 09:58:41;;;;;;;5.90;1.00;;;25.50;4.10;;;;;;5092148;28;20080;-54
2021/05/02 10:01:02;;;;;;;1.23;0.70;;;25.50;3.80;;;;;;5090086;28;20092;-55
2021/05/02 10:03:31;;;;;;;5.20;1.25;;;25.30;3.60;;;;;;5090124;28;20073;-56
2021/05/02 10:06:10;;;;;;;7.82;1.20;;;25.20;13.40;;;;;;5093102;28;20384;-56
2021/05/02 10:08:38;;;;;;;6.65;1.40;;;25.20;3.90;;;;;;5092281;28;20080;-58
2021/05/02 10:11:11;;;;;;;2.33;1.30;;;25.00;10.70;;;;;;5093105;28;20066;-58
2021/05/02 10:13:39;;;;;;;4.85;1.50;;;24.90;4.40;;;;;;5091464;28;20532;-58
2021/05/02 10:16:06;;;;;;;8.35;1.60;;;24.90;4.90;;;;;;5073196;28;20072;-58
2021/05/02 10:18:33;;;;;;;4.20;1.50;;;24.90;4.00;;;;;;5093835;28;20167;-57
2021/05/02 10:21:01;;;;;;;7.90;1.90;;;24.90;4.00;;;;;;5091264;28;20418;-57
2021/05/02 10:23:28;;;;;;;9.95;1.90;;;24.90;4.10;;;;;;5073637;28;20080;-55
2021/05/02 10:25:57;;;;;;;8.52;1.90;;;24.80;5.40;;;;;;5090782;28;20432;-53
2021/05/02 10:28:33;;;;;;;10.38;2.00;;;24.80;5.30;;;;;;5094488;28;20123;-57
2021/05/02 10:31:02;;;;;;;9.23;1.97;;;24.70;4.90;;;;;;5092802;28;20064;-55
2021/05/02 10:33:39;;;;;;;8.77;2.03;;;24.80;4.30;;;;;;5077636;28;20079;-58
2021/05/02 10:36:10;;;;;;;6.18;1.90;;;24.80;4.80;;;;;;5089854;28;20565;-56
2021/05/02 10:38:47;;;;;;;6.72;3.20;;;24.90;5.30;;;;;;5093039;28;20080;-58
2021/05/02 10:41:28;;;;;;;10.98;3.80;;;24.90;5.80;;;;;;5092406;28;20075;-58
2021/05/02 10:44:15;;;;;;;13.20;7.72;;;24.90;7.10;;;;;;5097381;28;20075;-58
2021/05/02 10:46:45;;;;;;;12.43;5.22;;;24.90;6.80;;;;;;5075767;28;20105;-58
2021/05/02 10:49:31;;;;;;;3.97;2.70;;;24.90;7.80;;;;;;5089864;28;20153;-54
2021/05/02 10:52:30;;;;;;;4.93;1.80;;;24.90;8.40;;;;;;5091360;28;20097;-57
2021/05/02 10:55:08;;;;;;;10.32;1.88;;;24.90;8.90;;;;;;5089779;28;20177;-55
2021/05/02 10:57:36;;;;;;;5.53;1.60;;;24.90;9.20;;;;;;5070381;28;20491;-54
2021/05/02 11:00:12;;;;;;;2.92;1.10;;;24.80;9.80;;;;;;5095579;28;20163;-56
2021/05/02 11:02:44;;;;;;;5.55;1.27;;;24.90;10.30;;;;;;5098167;28;20072;-55
2021/05/02 11:05:13;;;;;;;7.38;1.13;;;24.80;10.80;;;;;;5091214;28;20099;-58
2021/05/02 11:07:43;;;;;;;4.15;1.20;;;24.80;11.60;;;;;;5092794;28;20094;-57
2021/05/02 11:10:15;;;;;;;6.47;2.03;;;24.80;11.40;;;;;;5091064;28;20533;-54
2021/05/02 11:12:43;;;;;;;7.63;1.95;;;24.80;12.40;;;;;;5090113;28;20159;-55
2021/05/02 11:15:31;;;;;;;6.22;2.13;;;24.70;12.80;;;;;;5091547;28;20097;-54
2021/05/02 11:17:58;;;;;;;6.10;2.05;;;24.70;13.30;;;;;;5090922;28;20077;-55
2021/05/02 11:20:50;;;;;;;7.78;2.30;;;24.60;13.90;;;;;;5092293;28;20076;-56
2021/05/02 11:23:19;;;;;;;12.02;2.17;;;24.50;14.50;;;;;;5094623;28;20218;-58
2021/05/02 11:26:02;;;;;;;7.03;1.83;;;24.40;15.10;;;;;;5093195;28;20518;-55
2021/05/02 11:28:57;;;;;;;9.70;2.30;;;24.30;15.50;;;;;;5082343;28;20155;-57
2021/05/02 11:31:44;;;;;;;9.27;1.63;;;24.30;16.00;;;;;;5096624;28;20545;-57
2021/05/02 11:34:10;;;;;;;6.28;1.85;;;24.30;16.50;;;;;;5092484;28;20183;-53
2021/05/02 11:36:41;;;;;;;8.32;1.63;;;24.20;16.80;;;;;;5094516;28;20436;-53
2021/05/02 11:39:30;;;;;;;7.10;1.50;;;24.30;16.80;;;;;;5097239;28;20156;-55
2021/05/02 11:42:09;;;;;;;9.20;1.35;;;24.40;23.80;;;;;;5093609;28;20531;-53
2021/05/02 11:44:37;;;;;;;6.63;1.45;;;24.40;16.80;;;;;;5095524;28;20171;-52
2021/05/02 11:47:13;;;;;;;5.38;1.38;;;24.40;16.80;;;;;;5097255;28;20591;-53
2021/05/02 11:49:41;;;;;;;7.85;1.92;;;24.50;16.90;;;;;;5098277;28;20138;-55
2021/05/02 11:52:08;;;;;;;5.20;1.60;;;24.50;16.90;;;;;;5094128;28;20139;-53
2021/05/02 11:54:36;;;;;;;5.78;1.50;;;24.50;16.90;;;;;;5098143;28;20658;-54
2021/05/02 11:57:02;;;;;;;5.05;1.63;;;24.50;17.20;;;;;;5097148;28;20172;-51
2021/05/02 11:59:29;;;;;;;6.90;2.20;;;24.50;17.30;;;;;;5093437;28;20079;-53
2021/05/02 12:01:55;;;;;;;8.35;2.28;;;24.60;17.50;;;;;;5099861;28;20081;-54
2021/05/02 12:04:22;;;;;;;6.00;1.73;;;24.60;17.70;;;;;;5095865;28;20529;-55
2021/05/02 12:07:00;;;;;;;4.18;1.20;;;24.60;17.80;;;;;;5097239;28;20163;-53
2021/05/02 12:09:31;;;;;;;7.00;1.88;;;24.50;25.50;;;;;;5096157;28;20076;-56
2021/05/02 12:12:02;;;;;;;4.72;1.55;;;24.50;18.00;;;;;;5094340;28;20156;-54
2021/05/02 12:14:31;;;;;;;9.57;2.28;;;24.40;25.00;;;;;;5080969;28;20552;-55
2021/05/02 12:16:59;;;;;;;7.90;1.70;;;24.40;27.60;;;;;;5097384;28;20413;-55
2021/05/02 12:19:31;;;;;;;7.18;1.48;;;24.40;23.30;;;;;;5096131;28;20081;-58
2021/05/02 12:21:58;;;;;;;3.50;1.13;;;24.40;18.90;;;;;;5092707;28;20076;-55
2021/05/02 12:24:29;;;;;;;12.52;1.80;;;24.40;19.40;;;;;;5097205;28;20076;-54
2021/05/02 12:27:03;;;;;;;8.50;1.80;;;24.40;23.70;;;;;;5094440;28;20060;-55
2021/05/02 12:29:32;;;;;;;11.27;1.73;;;24.30;21.10;;;;;;5090976;28;20068;-54
2021/05/02 12:32:07;;;;;;;8.75;2.10;;;24.20;22.00;;;;;;5092566;28;20156;-56
2021/05/02 12:34:35;;;;;;;10.90;1.80;;;24.10;23.20;;;;;;5094144;28;20096;-54
2021/05/02 12:37:09;;;;;;;10.93;1.65;;;24.00;34.60;;;;;;5092949;28;20055;-56
2021/05/02 12:39:37;;;;;;;12.95;2.00;;;23.90;24.90;;;;;;5092395;28;20084;-56
2021/05/02 12:42:05;;;;;;;8.52;1.83;;;24.10;36.30;;;;;;5094862;28;20466;-53
2021/05/02 12:44:34;;;;;;;13.35;1.92;;;24.10;23.10;;;;;;5093898;28;20490;-58
2021/05/02 12:47:02;;;;;;;5.72;2.00;;;24.10;23.30;;;;;;5096674;28;20109;-55
2021/05/02 12:49:31;;;;;;;10.75;2.33;;;24.00;23.10;;;;;;5097068;28;20130;-55
2021/05/02 12:52:04;;;;;;;9.73;2.10;;;24.00;23.70;;;;;;5089952;28;20085;-56
2021/05/02 12:54:34;;;;;;;14.05;2.42;;;23.90;29.10;;;;;;5094511;28;20093;-57
2021/05/02 12:57:07;;;;;;;16.27;2.22;;;23.90;24.20;;;;;;5091925;28;20077;-57
2021/05/02 12:59:49;;;;;;;8.25;2.10;;;24.00;24.30;;;;;;5094991;28;20076;-53
2021/05/02 13:02:28;;;;;;;9.93;2.28;;;24.00;24.80;;;;;;5093231;28;20099;-54